Bewolking Meer informatie Parkstad Weather Satellite


Neerslagradar Meer informatie Parkstad Rain Snow Radar


Onweersbuien Meer informatie Parkstad Lighntning


24/7 Weercamera Meer informatie Parkstad Weathercam


Natuurbrandrisico
CBI







Het weer levert geen direct gevaar op in Parkstad.    Er zijn geen waarschuwingen afgegeven voor Parkstad (045)

METAR rapporten vliegvelden

   
EHBK - Beek Nederland
Gewijzigd: 09-04-2020 09:25
Helder  
Helder  
   Wind: ONO 9.3 km/h
Wind: ONO 9.3 km/h
Temperatuur: 13°C
Dauwpunt: 9°C
Vochtigheid: 77%
Barometer: 1024 hPa
Satelliet beelden: Helder
Zicht: meer dan 10 km
Bewolking: Helder
EHBK 090725Z AUTO 06005KT 9999 NCD 13/09 Q1024 NOSIG
EHBK - Maastricht Nederland
Gewijzigd: 09-04-2020 09:25
Helder  
Helder  
   Wind: ONO 9.3 km/h
Wind: ONO 9.3 km/h
Temperatuur: 13°C
Dauwpunt: 9°C
Vochtigheid: 77%
Barometer: 1024 hPa
Satelliet beelden: Helder
Zicht: meer dan 10 km
Bewolking: Helder
EHBK 090725Z AUTO 06005KT 9999 NCD 13/09 Q1024 NOSIG
EBLG - Liège België
Gewijzigd: 09-04-2020 09:20
Helder  
Helder  
   Wind: ZO 7.4 km/h
Wind: ZO 7.4 km/h
Temperatuur: 13°C
Dauwpunt: 8°C
Vochtigheid: 72%
Barometer: 1024 hPa
Zicht: meer dan 10 km
Bewolking: Helder
EBLG 090720Z 14004KT CAVOK 13/08 Q1024 NOSIG
EDDK - Köln/Bonn Duitsland
Gewijzigd: 09-04-2020 09:20
Helder  
Helder  
   Wind: ZZO 7.4 km/h
Wind: ZZO 7.4 km/h
Temperatuur: 12°C
Dauwpunt: 6°C
Vochtigheid: 67%
Barometer: 1024 hPa
Zicht: meer dan 10 km
Bewolking: Helder
EDDK 090720Z 16004KT CAVOK 12/06 Q1024 NOSIG
EDDL - Düsseldorf Duitsland
Gewijzigd: 09-04-2020 09:20
Helder  
Helder  
   Wind: NNO 7.4 km/h
Wind: NNO 7.4 km/h
Temperatuur: 15°C
Dauwpunt: 9°C
Vochtigheid: 68%
Barometer: 1024 hPa
Zicht: meer dan 10 km
Bewolking: Helder
EDDL 090720Z 03004KT 010V070 CAVOK 15/09 Q1024 NOSIG
EHEH - Eindhoven Nederland
Gewijzigd: 09-04-2020 09:25
Bewolking  
Bewolking  
   Wind: NNO 7.4 km/h
Wind: NNO 7.4 km/h
Temperatuur: 13°C
Dauwpunt: 8°C
Vochtigheid: 72%
Barometer: 1025 hPa
Satelliet beelden: Bewolking
Zicht: meer dan 10 km
Bewolking: Bewolking 2957 m
EHEH 090725Z AUTO 03004KT 360V070 9999 OVC097 13/08 Q1025 BLU 03006KT CAVOK
ELLX - Luxemburg Luxemburg
Gewijzigd: 09-04-2020 09:20
Helder  
Helder  
   Wind: varieert 1.9 km/h
Wind: varieert 1.9 km/h
Temperatuur: 13°C
Dauwpunt: 5°C
Vochtigheid: 59%
Barometer: 1024 hPa
Zicht: meer dan 10 km
Bewolking: Helder
ELLX 090720Z VRB01KT CAVOK 13/05 Q1024 NOSIG
EGLL - London England
Gewijzigd: 09-04-2020 09:20
Nevel, Helder  
Nevel, Helder  
   Wind: ONO 7.4 km/h
Wind: ONO 7.4 km/h
Temperatuur: 12°C
Dauwpunt: 8°C
Vochtigheid: 77%
Barometer: 1025 hPa
Satelliet beelden: Helder
Zicht: 4 km
Bewolking: Helder
EGLL 090720Z AUTO 07004KT 030V090 3800 HZ NCD 12/08 Q1025
EBAW - Antwerpen België
Gewijzigd: 09-04-2020 09:20
Gedeeltelijk bewolkt  
Gedeeltelijk bewolkt  
   Wind: NO 9.3 km/h
Wind: NO 9.3 km/h
Temperatuur: 14°C
Dauwpunt: 8°C
Vochtigheid: 67%
Barometer: 1025 hPa
Satelliet beelden: Gedeeltelijk bewolkt
Zicht: 8 km
Bewolking: Gedeeltelijk bewolkt
EBAW 090720Z 05005KT 8000 NSC 14/08 Q1025 NOSIG
EBOS - Oostende België
Gewijzigd: 09-04-2020 09:20
Gedeeltelijk bewolkt  
Gedeeltelijk bewolkt  
   Wind: ONO 13 km/h
Wind: ONO 13 km/h
Temperatuur: 13°C
Dauwpunt: 8°C
Vochtigheid: 72%
Barometer: 1025 hPa
Satelliet beelden: Gedeeltelijk bewolkt
Zicht: 7 km
Bewolking: Gedeeltelijk bewolkt
EBOS 090720Z 07007KT 7000 NSC 13/08 Q1025 NOSIG
LEAL - La Nucia Spanje
Gewijzigd: 09-04-2020 09:30
Licht bewolkt  
Licht bewolkt  
   Wind: Westen 1.9 km/h
Wind: Westen 1.9 km/h
Temperatuur: 13°C
Dauwpunt: 10°C
Vochtigheid: 82%
Barometer: 1022 hPa
Satelliet beelden: Licht bewolkt
Zicht: meer dan 10 km
Bewolking: Licht bewolkt 1524 m
LEAL 090730Z 27001KT 9999 FEW050 13/10 Q1022 NOSIG
TNCA - Oranjestad Aruba
Gewijzigd: 09-04-2020 09:00
Licht bewolkt  
Licht bewolkt  
   Wind: Oosten 27.8 km/h
Wind: Oosten 27.8 km/h
Temperatuur: 27°C
Gevoelstemperatuur: 29°C
Dauwpunt: 23°C
Vochtigheid: 79%
Barometer: 1011 hPa
Satelliet beelden: Licht bewolkt
Zicht: meer dan 10 km
Bewolking: Licht bewolkt 549 m
TNCA 090700Z 09015KT 9999 FEW018 27/23 Q1011 NOSIG
TNCC - Willemstad Curacao
Gewijzigd: 09-04-2020 09:00
Gedeeltelijk bewolkt  
Gedeeltelijk bewolkt  
   Wind: Oosten 20.4 km/h
Wind: Oosten 20.4 km/h
Temperatuur: 27°C
Gevoelstemperatuur: 29°C
Dauwpunt: 23°C
Vochtigheid: 79%
Barometer: 1011 hPa
Satelliet beelden: Gedeeltelijk bewolkt
Zicht: meer dan 10 km
Bewolking: Gedeeltelijk bewolkt 549 m
TNCC 090700Z AUTO 10011KT 9999 SCT018 27/23 Q1011 NOSIG
MTPP - Port au Prince Haitië
Gewijzigd: 09-04-2020 08:59
  
  
   Wind: varieert 3.7 km/h
Wind: varieert 3.7 km/h
Temperatuur: 27°C
Gevoelstemperatuur: 29°C
Dauwpunt: 23°C
Vochtigheid: 79%
Barometer: 1012 hPa
Zicht: 9 km
MTPP 090659Z AUTO VRB02KT 9000 ////// 27/23 Q1012 A2990 NOSIG
ENVA - Trondheim Noorwegen
Gewijzigd: 09-04-2020 09:20
Nabijgelegen buien, Grotendeels bewolkt  
Nabijgelegen buien, Grotendeels bewolkt  
   Wind: WZW 27.8 km/h
Wind: WZW 27.8 km/h
Temperatuur: 3°C
Voelt als: -2°C
Dauwpunt: -1°C
Vochtigheid: 75%
Barometer: 1015 hPa
Satelliet beelden: Grotendeels bewolkt
Zicht: meer dan 10 km
Bewolking: Grotendeels bewolkt 732 m
ENVA 090720Z 24015KT 9999 VCSH BKN024 03/M01 Q1015 TEMPO 1500 SHSNRA VV010 RMK WIND 670FT 25013G24KT
ENBO - Bodø Noorwegen
Gewijzigd: 09-04-2020 09:20
Grotendeels bewolkt  
Grotendeels bewolkt  
   Wind: NNW 24.1 km/h
Wind: NNW 24.1 km/h
Temperatuur: 2°C
Voelt als: -3°C
Dauwpunt: -5°C
Vochtigheid: 60%
Barometer: 1009 hPa
Satelliet beelden: Grotendeels bewolkt
Zicht: meer dan 10 km
Bewolking: Licht bewolkt 762 m,
Grotendeels bewolkt 1676 m
ENBO 090720Z 34013KT 300V010 9999 FEW025 BKN055 02/M05 Q1009 NOSIG
ETNG - Geilenkirchen Duitsland
Gewijzigd: 09-04-2020 08:50
  
  
   Wind: Westen 3.7 km/h
Wind: Westen 3.7 km/h
Temperatuur: 12°C
Dauwpunt: 8°C
Vochtigheid: 77%
Barometer: 1024 hPa
Zicht: 8 km
ETNG 090650Z 28002KT 8000 12/08 Q1024 NOSIG
 

Script ontwikkeld door  Saratoga-weather.org Aangepast voor de template door  Weerstation Leuven

U vindt ons ook hier:

Het Weer Aktueel

WOW Nederland KNMI

Vereniging voor Weerkunde en Klimatologie

UK Met Office Weather Observation Website (WOW)

WeatherCloud

Weather Underground

Awekas

Weatherlink IP

HAMweather, WeatherForYou, PWS Weather

Citizen Weather Observer Program (CWOP)

Apparatuur in gebruik:

Hardwareleverancier
Weerhuisje

Weerstation
Vantage Pro2+ UV

Weercomputer's
alix3d2 & wl330n

Weerprogramma's
Smartbedded

Satelliet NOAA's
WRX137 & KX137

Satelliet Eumetsat
Ayecka SR1 & Triax

Bliksemdetectie
Boltek StormTracker

Webleverancier
F-Service

Weerhuisje

Vantage Pro2+ UV

alix3d2 & wl330n

Smartbedded

WRX137 & KX137

Ayecka SR1 & Triax

Boltek StormTracker

F-Service